< < Back
Terminal Aerodrome Forecast


Current Version              Previous Versions:   1  2  3  4  5  6  7  8  9  

Terminal Aerodrome Forecast

818
FTUS44 KOHX 251700
TAFCSV
TAF
KCSV 251738Z 2518/2618 19010G17KT P6SM -SHRA OVC045
     FM252200 17008KT 5SM -SHRA VCTS OVC030CB
     FM260400 16006KT P6SM VCSH OVC040
     FM260800 18006KT P6SM OVC025=

Latest METAR

031
SAUS70 KWBC 251700 RRL
MTRCSV
METAR KCSV 251653Z AUTO 17008G17KT 10SM OVC060 23/16 A3027 RMK AO2
SLP230 T02280156


USA.gov is the U.S. government's official web portal to all federal, state and local government web resources and services.